Emerald Coast — WDC9127 — position and weather

sailwx.info

Track history (hours):
 
Tides and Currents Weather Stations Pressure Air Temp Water Temp Dewpoint Dewpoint Depression Visibility Wind Speed Wind Dir Waves Ship Positions

Emerald Coast

Owner: Dann Marine Towing, LC, Chesapeake City, MD. More information available from US FCC via Universal Licensing System and Coast Guard Vessel Documentation Center.

Last reported at 2017-Oct-20 11:12 UTC. Time now 2017-Oct-20 12:53 UTC.
Position N 40°38' W 074°07'.

Length 24 m; draft 3 m.

Type: Tug. MMSI: 367097920.

Date/timePositionNaut miles runAvg speedWind from/ knotsBaromVisibWave heightAir tempDewpointWater temp
2017-Oct-20 11:12N 40°38' W 074°07'0 0.0
2017-Oct-20 10:42N 40°38' W 074°07'0 0.0
2017-Oct-20 10:24N 40°38' W 074°07'0 0.0
2017-Oct-20 09:48N 40°38' W 074°07'0 0.0
2017-Oct-20 09:24N 40°38' W 074°07'0 0.0
2017-Oct-20 09:00N 40°38' W 074°07'0 0.0
2017-Oct-20 08:24N 40°38' W 074°07'0 0.0
2017-Oct-20 08:00N 40°38' W 074°07'1 1.4
2017-Oct-20 07:30N 40°39' W 074°07'0 0.2
2017-Oct-20 07:00N 40°39' W 074°07'1 1.3
2017-Oct-20 06:28N 40°38' W 074°07'0 0.0
2017-Oct-20 05:55N 40°38' W 074°07'0 0.0
2017-Oct-20 01:19N 40°39' W 074°07'1 2.7
2017-Oct-20 00:59N 40°39' W 074°06'3 5.5
2017-Oct-20 00:30N 40°39' W 074°10'1 2.4
2017-Oct-19 23:59N 40°39' W 074°11'1 1.1
2017-Oct-19 23:30N 40°39' W 074°11'3 3.4
2017-Oct-19 22:45N 40°38' W 074°07'0 0.0
2017-Oct-19 21:21N 40°38' W 074°07'0 0.0
2017-Oct-19 20:51N 40°38' W 074°07'0 0.1
2017-Oct-19 20:28N 40°39' W 074°07'3 5.2
2017-Oct-19 19:53N 40°39' W 074°11'0 0.2
2017-Oct-19 19:26N 40°39' W 074°11'2 5.5
2017-Oct-19 19:01N 40°39' W 074°08'3 5.3
2017-Oct-19 18:30N 40°39' W 074°05'2 3.5
2017-Oct-19 17:59N 40°40' W 074°03'3 6.8
2017-Oct-19 17:30N 40°39' W 074°07'0 0.1
2017-Oct-19 13:42N 40°38' W 074°07'0 0.0
2017-Oct-19 13:19N 40°38' W 074°07'1 3.6
2017-Oct-19 13:00N 40°39' W 074°06'1 1.1
2017-Oct-19 12:30N 40°39' W 074°05'2 4.6
2017-Oct-19 12:01N 40°41' W 074°03'2 4.6
2017-Oct-19 11:30N 40°39' W 074°05'1 1.5
2017-Oct-19 10:58N 40°39' W 074°06'3 7.0
2017-Oct-19 10:31N 40°39' W 074°02'2 3.1
2017-Oct-19 09:59N 40°40' W 074°00'0 0.0
2017-Oct-19 09:29N 40°40' W 074°00'0 0.0
2017-Oct-19 08:59N 40°40' W 074°00'0 0.0
2017-Oct-19 08:29N 40°40' W 074°00'0 0.0
2017-Oct-19 07:59N 40°40' W 074°00'0 0.0
2017-Oct-19 07:29N 40°40' W 074°00'0 0.0
2017-Oct-19 06:59N 40°40' W 074°00'0 0.0
2017-Oct-19 06:29N 40°40' W 074°00'0 0.0
2017-Oct-19 05:59N 40°40' W 074°00'0 0.0
2017-Oct-19 05:29N 40°40' W 074°00'0 0.0
2017-Oct-19 04:59N 40°40' W 074°00'0 0.0
2017-Oct-19 04:29N 40°40' W 074°00'0 0.0
2017-Oct-19 03:59N 40°40' W 074°00'0 0.0
2017-Oct-19 03:29N 40°40' W 074°00'0 0.0
2017-Oct-19 02:59N 40°40' W 074°00'0 0.0
2017-Oct-19 02:30N 40°40' W 074°00'2 4.6
2017-Oct-19 02:00N 40°42' W 073°59'1 1.6
2017-Oct-19 01:29N 40°42' W 073°58'2 3.7
2017-Oct-19 01:00N 40°42' W 074°00'2 2.8
2017-Oct-19 00:28N 40°40' W 074°00'0 0.0
2017-Oct-18 23:58N 40°40' W 074°00'0 0.0
2017-Oct-18 23:28N 40°40' W 074°00'2 4.3
2017-Oct-18 23:00N 40°39' W 074°02'4 1.9
2017-Oct-18 21:04N 40°38' W 074°07'0 0.0
2017-Oct-18 17:49N 40°38' W 074°07'0 0.0
2017-Oct-18 17:25N 40°38' W 074°07'0 0.0
2017-Oct-18 12:21N 40°38' W 074°07'3 8.0
2017-Oct-18 12:00N 40°39' W 074°11'1 1.9
2017-Oct-18 11:16N 40°38' W 074°12'0 0.7
2017-Oct-18 10:58N 40°38' W 074°12'1 3.2
2017-Oct-18 10:30N 40°39' W 074°11'2 4.1
2017-Oct-18 10:00N 40°39' W 074°08'2 4.3
2017-Oct-18 09:30N 40°39' W 074°05'2 4.2
2017-Oct-18 09:00N 40°40' W 074°03'2 3.5
2017-Oct-18 08:31N 40°41' W 074°01'2 3.0
2017-Oct-18 08:00N 40°42' W 073°60'2 3.2
2017-Oct-18 07:30N 40°43' W 073°58'1 2.5
2017-Oct-18 06:59N 40°44' W 073°57'0 0.4
2017-Oct-18 06:28N 40°44' W 073°57'0 0.8
2017-Oct-18 05:59N 40°44' W 073°57'2 5.0
2017-Oct-18 05:30N 40°43' W 073°59'3 6.5
2017-Oct-18 05:00N 40°40' W 074°02'2 4.4
2017-Oct-18 04:29N 40°39' W 074°05'1 2.4
2017-Oct-18 04:00N 40°39' W 074°06'2 3.8
2017-Oct-18 03:30N 40°40' W 074°08'2 2.9
2017-Oct-18 02:58N 40°41' W 074°09'0 0.0
2017-Oct-18 02:28N 40°41' W 074°09'0 0.0
2017-Oct-18 01:55N 40°41' W 074°09'0 0.0
2017-Oct-18 01:28N 40°41' W 074°09'0 0.0
2017-Oct-18 00:58N 40°41' W 074°09'2 3.3
2017-Oct-18 00:30N 40°40' W 074°09'0 0.1
2017-Oct-18 00:00N 40°40' W 074°09'0 0.1
2017-Oct-17 23:30N 40°40' W 074°09'0 0.0
2017-Oct-17 23:00N 40°40' W 074°09'2 0.4
2017-Oct-17 19:02N 40°38' W 074°07'0 3.9
2017-Oct-17 19:01N 40°39' W 074°07'2 3.1
2017-Oct-17 18:29N 40°40' W 074°09'1 2.8
2017-Oct-17 18:00N 40°39' W 074°08'2 4.0
2017-Oct-17 17:30N 40°39' W 074°05'1 2.5
2017-Oct-17 16:56N 40°38' W 074°07'0 0.0
2017-Oct-17 16:26N 40°38' W 074°07'0 0.0
2017-Oct-17 15:20N 40°38' W 074°07'0 0.2
2017-Oct-17 14:59N 40°39' W 074°07'1 3.0
2017-Oct-17 14:30N 40°39' W 074°05'2 4.5
2017-Oct-17 14:00N 40°40' W 074°03'0 0.2
2017-Oct-17 13:30N 40°40' W 074°03'3 6.1
2017-Oct-17 13:00N 40°39' W 074°06'1 0.9
2017-Oct-17 12:28N 40°39' W 074°07'2 3.6
2017-Oct-17 12:00N 40°39' W 074°05'0 0.4
2017-Oct-17 11:30N 40°39' W 074°05'1 2.5
2017-Oct-17 11:00N 40°40' W 074°05'2 3.7
2017-Oct-17 10:30N 40°39' W 074°06'1 0.7
2017-Oct-17 09:27N 40°38' W 074°07'0 0.0
2017-Oct-17 08:57N 40°38' W 074°07'0 0.0
2017-Oct-17 08:27N 40°38' W 074°07'0 0.0
2017-Oct-17 07:51N 40°38' W 074°07'0 0.0
2017-Oct-17 07:27N 40°38' W 074°07'0 0.0
2017-Oct-17 06:57N 40°38' W 074°07'0 0.0
2017-Oct-17 06:15N 40°38' W 074°07'0 0.0
2017-Oct-17 05:51N 40°38' W 074°07'0 0.0
2017-Oct-17 05:27N 40°38' W 074°07'0 0.0
2017-Oct-17 04:57N 40°38' W 074°07'0 0.0
2017-Oct-17 04:27N 40°38' W 074°07'0 0.0
2017-Oct-17 03:56N 40°38' W 074°07'1 1.7
2017-Oct-17 03:16N 40°38' W 074°09'0 0.0
2017-Oct-17 02:58N 40°38' W 074°09'0 0.0
2017-Oct-17 02:25N 40°38' W 074°09'1 2.8
2017-Oct-17 02:00N 40°39' W 074°07'3 5.4
2017-Oct-17 01:30N 40°39' W 074°04'2 3.2
2017-Oct-17 01:00N 40°40' W 074°02'4 7.8
2017-Oct-17 00:29N 40°39' W 074°07'0 0.0
2017-Oct-16 23:59N 40°39' W 074°07'0 0.0
2017-Oct-16 23:26N 40°39' W 074°07'0 0.0
2017-Oct-16 22:56N 40°39' W 074°07'1 1.4
2017-Oct-16 22:30N 40°39' W 074°06'0 0.0
2017-Oct-16 21:59N 40°39' W 074°06'1 0.1
2017-Oct-16 17:04N 40°39' W 074°07'1 8.7
2017-Oct-16 17:00N 40°39' W 074°07'1 1.3
2017-Oct-16 16:28N 40°38' W 074°07'2 3.5
2017-Oct-16 16:00N 40°39' W 074°05'5 9.5
2017-Oct-16 15:31N 40°43' W 074°02'3 6.2
2017-Oct-16 14:59N 40°46' W 074°00'0 0.2
2017-Oct-16 13:59N 40°46' W 073°60'0 0.0
2017-Oct-16 13:29N 40°46' W 073°60'0 0.0
2017-Oct-16 12:59N 40°46' W 073°60'0 0.0
2017-Oct-16 12:29N 40°46' W 073°60'0 0.0
2017-Oct-16 11:56N 40°46' W 073°60'0 0.0
2017-Oct-16 11:26N 40°46' W 073°60'0 0.4
2017-Oct-16 11:00N 40°46' W 074°00'0 0.3
2017-Oct-16 10:30N 40°46' W 074°00'3 7.0
2017-Oct-16 10:00N 40°43' W 074°02'4 8.7
2017-Oct-16 09:30N 40°39' W 074°05'2 0.1
2017-Oct-15 15:20N 40°38' W 074°07'2 6.7
2017-Oct-15 15:00N 40°39' W 074°05'8 7.4
2017-Oct-15 13:59N 40°46' W 074°00'0 0.2
2017-Oct-15 13:28N 40°46' W 073°60'0 0.0
2017-Oct-15 12:58N 40°46' W 073°60'0 0.2
2017-Oct-15 12:27N 40°46' W 073°60'0 0.3
2017-Oct-15 12:00N 40°46' W 074°00'0 0.2
2017-Oct-15 11:29N 40°46' W 074°00'0 0.2
2017-Oct-15 10:57N 40°46' W 073°60'0 0.0
2017-Oct-15 10:30N 40°46' W 073°60'0 0.6
2017-Oct-15 10:00N 40°46' W 074°00'4 9.0
2017-Oct-15 09:31N 40°42' W 074°02'4 8.6
2017-Oct-15 09:00N 40°39' W 074°06'1 0.7
2017-Oct-15 07:45N 40°38' W 074°07'0 0.0
2017-Oct-15 05:21N 40°38' W 074°07'0 0.0
2017-Oct-15 04:21N 40°38' W 074°07'0 0.0
2017-Oct-15 03:57N 40°38' W 074°07'0 0.0
2017-Oct-15 02:15N 40°38' W 074°07'0 0.0
2017-Oct-14 20:37N 40°39' W 074°07'0 1.7
2017-Oct-14 20:20N 40°39' W 074°07'0 0.5
2017-Oct-14 19:58N 40°39' W 074°07'1 1.1
2017-Oct-14 19:30N 40°39' W 074°06'4 8.1
2017-Oct-14 19:00N 40°40' W 074°01'1 1.8
2017-Oct-14 18:28N 40°40' W 074°00'0 0.0
2017-Oct-14 17:58N 40°40' W 074°00'0 0.0
2017-Oct-14 17:28N 40°40' W 074°00'0 0.0
2017-Oct-14 16:55N 40°40' W 074°00'0 0.0
2017-Oct-14 16:28N 40°40' W 074°00'0 0.0
2017-Oct-14 15:49N 40°40' W 074°00'0 0.1
2017-Oct-14 15:30N 40°40' W 074°00'0 0.1
2017-Oct-14 14:58N 40°40' W 074°00'0 0.0
2017-Oct-14 14:20N 40°40' W 074°00'0 0.0
2017-Oct-14 13:58N 40°40' W 074°00'0 0.0
2017-Oct-14 13:28N 40°40' W 074°00'0 0.8
2017-Oct-14 13:00N 40°40' W 074°00'4 8.0
2017-Oct-14 12:30N 40°39' W 074°05'1 1.4
2017-Oct-14 11:31N 40°38' W 074°07'0 0.0
2017-Oct-14 11:19N 40°38' W 074°07'0 0.0
2017-Oct-14 10:13N 40°38' W 074°07'0 0.0
2017-Oct-14 08:31N 40°38' W 074°07'0 0.0
2017-Oct-14 06:19N 40°38' W 074°07'0 0.0
2017-Oct-14 05:49N 40°38' W 074°07'0 0.0
2017-Oct-14 05:25N 40°38' W 074°07'0 0.0
2017-Oct-14 04:43N 40°38' W 074°07'0 0.0
2017-Oct-14 03:07N 40°38' W 074°07'0 0.0
2017-Oct-14 02:49N 40°38' W 074°07'0 0.0
2017-Oct-14 02:25N 40°38' W 074°07'0 0.0
2017-Oct-14 01:55N 40°38' W 074°07'0 0.0
2017-Oct-14 00:01N 40°38' W 074°07'0 0.0
2017-Oct-13 23:55N 40°38' W 074°07'0 0.0
2017-Oct-13 23:13N 40°38' W 074°07'0 0.0
2017-Oct-13 22:57N 40°38' W 074°07'4 7.9
2017-Oct-13 22:30N 40°38' W 074°12'1 1.0
2017-Oct-13 21:59N 40°38' W 074°12'2 3.5
2017-Oct-13 21:30N 40°39' W 074°11'3 4.8
2017-Oct-13 20:58N 40°39' W 074°07'0 0.0
2017-Oct-13 20:28N 40°39' W 074°07'0 0.0
2017-Oct-13 17:10N 40°39' W 074°07'0 0.0
2017-Oct-13 16:52N 40°39' W 074°07'0 0.0
2017-Oct-13 15:58N 40°39' W 074°07'0 0.0
2017-Oct-13 15:28N 40°38' W 074°07'0 0.0
2017-Oct-13 14:46N 40°39' W 074°07'0 0.0
2017-Oct-13 14:28N 40°39' W 074°07'0 0.0
2017-Oct-13 13:58N 40°38' W 074°07'0 0.0
2017-Oct-13 13:16N 40°39' W 074°07'0 0.0
2017-Oct-13 12:58N 40°39' W 074°07'0 0.0
2017-Oct-13 12:28N 40°39' W 074°07'0 0.0
2017-Oct-13 11:55N 40°39' W 074°07'0 0.0
2017-Oct-13 11:28N 40°39' W 074°07'2 3.3
2017-Oct-13 11:00N 40°39' W 074°05'1 2.4
2017-Oct-13 10:28N 40°40' W 074°05'0 0.0
2017-Oct-13 09:58N 40°40' W 074°05'0 0.0
2017-Oct-13 09:28N 40°40' W 074°05'0 0.0
2017-Oct-13 08:58N 40°40' W 074°05'0 0.0
2017-Oct-13 08:10N 40°40' W 074°05'0 0.0
2017-Oct-13 07:55N 40°40' W 074°05'0 0.0
2017-Oct-13 07:28N 40°40' W 074°05'0 0.0
2017-Oct-13 06:58N 40°40' W 074°05'0 0.0
2017-Oct-13 06:25N 40°40' W 074°05'0 0.0
2017-Oct-13 05:58N 40°40' W 074°05'0 0.0
2017-Oct-13 05:25N 40°40' W 074°05'0 0.0
2017-Oct-13 04:55N 40°40' W 074°05'0 0.0
2017-Oct-13 04:28N 40°40' W 074°05'0 0.0
2017-Oct-13 03:55N 40°40' W 074°05'0 0.0
2017-Oct-13 03:28N 40°40' W 074°05'0 0.0
2017-Oct-13 02:58N 40°40' W 074°05'0 0.0
2017-Oct-13 02:28N 40°40' W 074°05'0 0.0
2017-Oct-13 01:58N 40°40' W 074°05'2 3.0
2017-Oct-13 01:25N 40°40' W 074°03'1 3.4
2017-Oct-13 01:00N 40°39' W 074°04'3 6.7
2017-Oct-13 00:30N 40°39' W 074°09'2 4.8
2017-Oct-13 00:00N 40°41' W 074°09'2 4.0
2017-Oct-12 23:30N 40°39' W 074°09'1 0.8
2017-Oct-12 21:53N 40°38' W 074°07'0 0.0
2017-Oct-12 21:25N 40°38' W 074°07'3 6.8
2017-Oct-12 21:00N 40°40' W 074°04'0 0.2
2017-Oct-12 20:30N 40°40' W 074°04'4 7.0
2017-Oct-12 19:59N 40°39' W 074°08'2 3.9
2017-Oct-12 19:26N 40°41' W 074°09'1 2.7
2017-Oct-12 19:00N 40°40' W 074°09'3 6.3
2017-Oct-12 18:30N 40°39' W 074°05'4 7.2
2017-Oct-12 18:00N 40°40' W 074°00'0 0.1
2017-Oct-12 17:30N 40°40' W 074°00'0 0.0
2017-Oct-12 16:57N 40°40' W 074°00'0 0.0
2017-Oct-12 16:30N 40°40' W 074°00'0 0.0
2017-Oct-12 15:54N 40°40' W 074°00'0 0.0
2017-Oct-12 15:30N 40°40' W 074°00'0 0.0
2017-Oct-12 14:54N 40°40' W 074°00'0 0.0
2017-Oct-12 14:30N 40°40' W 074°00'0 0.0
2017-Oct-12 13:54N 40°40' W 074°00'0 0.1
2017-Oct-12 13:31N 40°40' W 073°60'3 5.5
2017-Oct-12 13:00N 40°39' W 074°03'3 4.4
2017-Oct-12 12:20N 40°39' W 074°07'0 0.1
2017-Oct-12 11:54N 40°39' W 074°07'0 0.0
2017-Oct-12 11:30N 40°39' W 074°07'0 0.1
2017-Oct-12 10:50N 40°38' W 074°07'0 0.0
2017-Oct-12 10:02N 40°38' W 074°07'0 0.0
2017-Oct-12 09:44N 40°38' W 074°07'0 0.0
2017-Oct-12 09:26N 40°38' W 074°07'0 0.0
2017-Oct-12 05:35N 40°39' W 074°07'0 0.1
2017-Oct-12 05:28N 40°39' W 074°07'0 0.0
2017-Oct-12 04:58N 40°39' W 074°07'0 0.0
2017-Oct-12 01:39N 40°38' W 074°07'0 0.0
2017-Oct-12 01:03N 40°38' W 074°07'0 0.0
2017-Oct-12 00:57N 40°38' W 074°07'0 0.0
2017-Oct-12 00:30N 40°38' W 074°07'0 0.0
2017-Oct-12 00:00N 40°38' W 074°07'0 0.0
2017-Oct-11 23:30N 40°38' W 074°07'0 0.0
2017-Oct-11 23:00N 40°38' W 074°07'0 0.0
2017-Oct-11 22:30N 40°38' W 074°07'0 0.0
2017-Oct-11 19:54N 40°38' W 074°07'0 0.0
2017-Oct-11 17:00N 40°38' W 074°07'0 0.0
2017-Oct-11 00:00N 40°38' W 074°07'0 0.0
2017-Oct-10 23:24N 40°38' W 074°07'0 0.0
2017-Oct-10 23:00N 40°38' W 074°07'0 0.0
2017-Oct-10 22:21N 40°38' W 074°07'0 0.0
2017-Oct-10 21:54N 40°38' W 074°07'0 0.0
2017-Oct-10 21:30N 40°38' W 074°07'0 0.0
2017-Oct-10 16:33N 40°38' W 074°07'0 0.0
2017-Oct-10 16:09N 40°38' W 074°07'0 0.0
2017-Oct-10 14:00N 40°38' W 074°07'0 0.0
2017-Oct-10 13:27N 40°38' W 074°07'0 0.0
2017-Oct-10 11:30N 40°38' W 074°07'  
Track history (hours):
 
Tides and Currents Weather Stations Pressure Air Temp Water Temp Dewpoint Dewpoint Depression Visibility Wind Speed Wind Dir Waves Ship Positions

Emerald Coast

Owner: Dann Marine Towing, LC, Chesapeake City, MD. More information available from US FCC via Universal Licensing System and Coast Guard Vessel Documentation Center.

Last reported at 2017-Oct-20 11:12 UTC. Time now 2017-Oct-20 12:53 UTC.
Position N 40°38' W 074°07'.

Length 24 m; draft 3 m.

Type: Tug. MMSI: 367097920.

Date/timePositionNaut miles runAvg speedWind from/ knotsBaromVisibWave heightAir tempDewpointWater temp
2017-Oct-20 11:12N 40°38' W 074°07'0 0.0
2017-Oct-20 10:42N 40°38' W 074°07'0 0.0
2017-Oct-20 10:24N 40°38' W 074°07'0 0.0
2017-Oct-20 09:48N 40°38' W 074°07'0 0.0
2017-Oct-20 09:24N 40°38' W 074°07'0 0.0
2017-Oct-20 09:00N 40°38' W 074°07'0 0.0
2017-Oct-20 08:24N 40°38' W 074°07'0 0.0
2017-Oct-20 08:00N 40°38' W 074°07'1 1.4
2017-Oct-20 07:30N 40°39' W 074°07'0 0.2
2017-Oct-20 07:00N 40°39' W 074°07'1 1.3
2017-Oct-20 06:28N 40°38' W 074°07'0 0.0
2017-Oct-20 05:55N 40°38' W 074°07'0 0.0
2017-Oct-20 01:19N 40°39' W 074°07'1 2.7
2017-Oct-20 00:59N 40°39' W 074°06'3 5.5
2017-Oct-20 00:30N 40°39' W 074°10'1 2.4
2017-Oct-19 23:59N 40°39' W 074°11'1 1.1
2017-Oct-19 23:30N 40°39' W 074°11'3 3.4
2017-Oct-19 22:45N 40°38' W 074°07'0 0.0
2017-Oct-19 21:21N 40°38' W 074°07'0 0.0
2017-Oct-19 20:51N 40°38' W 074°07'0 0.1
2017-Oct-19 20:28N 40°39' W 074°07'3 5.2
2017-Oct-19 19:53N 40°39' W 074°11'0 0.2
2017-Oct-19 19:26N 40°39' W 074°11'2 5.5
2017-Oct-19 19:01N 40°39' W 074°08'3 5.3
2017-Oct-19 18:30N 40°39' W 074°05'2 3.5
2017-Oct-19 17:59N 40°40' W 074°03'3 6.8
2017-Oct-19 17:30N 40°39' W 074°07'0 0.1
2017-Oct-19 13:42N 40°38' W 074°07'0 0.0
2017-Oct-19 13:19N 40°38' W 074°07'1 3.6
2017-Oct-19 13:00N 40°39' W 074°06'1 1.1
2017-Oct-19 12:30N 40°39' W 074°05'2 4.6
2017-Oct-19 12:01N 40°41' W 074°03'2 4.6
2017-Oct-19 11:30N 40°39' W 074°05'1 1.5
2017-Oct-19 10:58N 40°39' W 074°06'3 7.0
2017-Oct-19 10:31N 40°39' W 074°02'2 3.1
2017-Oct-19 09:59N 40°40' W 074°00'0 0.0
2017-Oct-19 09:29N 40°40' W 074°00'0 0.0
2017-Oct-19 08:59N 40°40' W 074°00'0 0.0
2017-Oct-19 08:29N 40°40' W 074°00'0 0.0
2017-Oct-19 07:59N 40°40' W 074°00'0 0.0
2017-Oct-19 07:29N 40°40' W 074°00'0 0.0
2017-Oct-19 06:59N 40°40' W 074°00'0 0.0
2017-Oct-19 06:29N 40°40' W 074°00'0 0.0
2017-Oct-19 05:59N 40°40' W 074°00'0 0.0
2017-Oct-19 05:29N 40°40' W 074°00'0 0.0
2017-Oct-19 04:59N 40°40' W 074°00'0 0.0
2017-Oct-19 04:29N 40°40' W 074°00'0 0.0
2017-Oct-19 03:59N 40°40' W 074°00'0 0.0
2017-Oct-19 03:29N 40°40' W 074°00'0 0.0
2017-Oct-19 02:59N 40°40' W 074°00'0 0.0
2017-Oct-19 02:30N 40°40' W 074°00'2 4.6
2017-Oct-19 02:00N 40°42' W 073°59'1 1.6
2017-Oct-19 01:29N 40°42' W 073°58'2 3.7
2017-Oct-19 01:00N 40°42' W 074°00'2 2.8
2017-Oct-19 00:28N 40°40' W 074°00'0 0.0
2017-Oct-18 23:58N 40°40' W 074°00'0 0.0
2017-Oct-18 23:28N 40°40' W 074°00'2 4.3
2017-Oct-18 23:00N 40°39' W 074°02'4 1.9
2017-Oct-18 21:04N 40°38' W 074°07'0 0.0
2017-Oct-18 17:49N 40°38' W 074°07'0 0.0
2017-Oct-18 17:25N 40°38' W 074°07'0 0.0
2017-Oct-18 12:21N 40°38' W 074°07'3 8.0
2017-Oct-18 12:00N 40°39' W 074°11'1 1.9
2017-Oct-18 11:16N 40°38' W 074°12'0 0.7
2017-Oct-18 10:58N 40°38' W 074°12'1 3.2
2017-Oct-18 10:30N 40°39' W 074°11'2 4.1
2017-Oct-18 10:00N 40°39' W 074°08'2 4.3
2017-Oct-18 09:30N 40°39' W 074°05'2 4.2
2017-Oct-18 09:00N 40°40' W 074°03'2 3.5
2017-Oct-18 08:31N 40°41' W 074°01'2 3.0
2017-Oct-18 08:00N 40°42' W 073°60'2 3.2
2017-Oct-18 07:30N 40°43' W 073°58'1 2.5
2017-Oct-18 06:59N 40°44' W 073°57'0 0.4
2017-Oct-18 06:28N 40°44' W 073°57'0 0.8
2017-Oct-18 05:59N 40°44' W 073°57'2 5.0
2017-Oct-18 05:30N 40°43' W 073°59'3 6.5
2017-Oct-18 05:00N 40°40' W 074°02'2 4.4
2017-Oct-18 04:29N 40°39' W 074°05'1 2.4
2017-Oct-18 04:00N 40°39' W 074°06'2 3.8
2017-Oct-18 03:30N 40°40' W 074°08'2 2.9
2017-Oct-18 02:58N 40°41' W 074°09'0 0.0
2017-Oct-18 02:28N 40°41' W 074°09'0 0.0
2017-Oct-18 01:55N 40°41' W 074°09'0 0.0
2017-Oct-18 01:28N 40°41' W 074°09'0 0.0
2017-Oct-18 00:58N 40°41' W 074°09'2 3.3
2017-Oct-18 00:30N 40°40' W 074°09'0 0.1
2017-Oct-18 00:00N 40°40' W 074°09'0 0.1
2017-Oct-17 23:30N 40°40' W 074°09'0 0.0
2017-Oct-17 23:00N 40°40' W 074°09'2 0.4
2017-Oct-17 19:02N 40°38' W 074°07'0 3.9
2017-Oct-17 19:01N 40°39' W 074°07'2 3.1
2017-Oct-17 18:29N 40°40' W 074°09'1 2.8
2017-Oct-17 18:00N 40°39' W 074°08'2 4.0
2017-Oct-17 17:30N 40°39' W 074°05'1 2.5
2017-Oct-17 16:56N 40°38' W 074°07'0 0.0
2017-Oct-17 16:26N 40°38' W 074°07'0 0.0
2017-Oct-17 15:20N 40°38' W 074°07'0 0.2
2017-Oct-17 14:59N 40°39' W 074°07'1 3.0
2017-Oct-17 14:30N 40°39' W 074°05'2 4.5
2017-Oct-17 14:00N 40°40' W 074°03'0 0.2
2017-Oct-17 13:30N 40°40' W 074°03'3 6.1
2017-Oct-17 13:00N 40°39' W 074°06'1 0.9
2017-Oct-17 12:28N 40°39' W 074°07'2 3.6
2017-Oct-17 12:00N 40°39' W 074°05'0 0.4
2017-Oct-17 11:30N 40°39' W 074°05'1 2.5
2017-Oct-17 11:00N 40°40' W 074°05'2 3.7
2017-Oct-17 10:30N 40°39' W 074°06'1 0.7
2017-Oct-17 09:27N 40°38' W 074°07'0 0.0
2017-Oct-17 08:57N 40°38' W 074°07'0 0.0
2017-Oct-17 08:27N 40°38' W 074°07'0 0.0
2017-Oct-17 07:51N 40°38' W 074°07'0 0.0
2017-Oct-17 07:27N 40°38' W 074°07'0 0.0
2017-Oct-17 06:57N 40°38' W 074°07'0 0.0
2017-Oct-17 06:15N 40°38' W 074°07'0 0.0
2017-Oct-17 05:51N 40°38' W 074°07'0 0.0
2017-Oct-17 05:27N 40°38' W 074°07'0 0.0
2017-Oct-17 04:57N 40°38' W 074°07'0 0.0
2017-Oct-17 04:27N 40°38' W 074°07'0 0.0
2017-Oct-17 03:56N 40°38' W 074°07'1 1.7
2017-Oct-17 03:16N 40°38' W 074°09'0 0.0
2017-Oct-17 02:58N 40°38' W 074°09'0 0.0
2017-Oct-17 02:25N 40°38' W 074°09'1 2.8
2017-Oct-17 02:00N 40°39' W 074°07'3 5.4
2017-Oct-17 01:30N 40°39' W 074°04'2 3.2
2017-Oct-17 01:00N 40°40' W 074°02'4 7.8
2017-Oct-17 00:29N 40°39' W 074°07'0 0.0
2017-Oct-16 23:59N 40°39' W 074°07'0 0.0
2017-Oct-16 23:26N 40°39' W 074°07'0 0.0
2017-Oct-16 22:56N 40°39' W 074°07'1 1.4
2017-Oct-16 22:30N 40°39' W 074°06'0 0.0
2017-Oct-16 21:59N 40°39' W 074°06'1 0.1
2017-Oct-16 17:04N 40°39' W 074°07'1 8.7
2017-Oct-16 17:00N 40°39' W 074°07'1 1.3
2017-Oct-16 16:28N 40°38' W 074°07'2 3.5
2017-Oct-16 16:00N 40°39' W 074°05'5 9.5
2017-Oct-16 15:31N 40°43' W 074°02'3 6.2
2017-Oct-16 14:59N 40°46' W 074°00'0 0.2
2017-Oct-16 13:59N 40°46' W 073°60'0 0.0
2017-Oct-16 13:29N 40°46' W 073°60'0 0.0
2017-Oct-16 12:59N 40°46' W 073°60'0 0.0
2017-Oct-16 12:29N 40°46' W 073°60'0 0.0
2017-Oct-16 11:56N 40°46' W 073°60'0 0.0
2017-Oct-16 11:26N 40°46' W 073°60'0 0.4
2017-Oct-16 11:00N 40°46' W 074°00'0 0.3
2017-Oct-16 10:30N 40°46' W 074°00'3 7.0
2017-Oct-16 10:00N 40°43' W 074°02'4 8.7
2017-Oct-16 09:30N 40°39' W 074°05'2 0.1
2017-Oct-15 15:20N 40°38' W 074°07'2 6.7
2017-Oct-15 15:00N 40°39' W 074°05'8 7.4
2017-Oct-15 13:59N 40°46' W 074°00'0 0.2
2017-Oct-15 13:28N 40°46' W 073°60'0 0.0
2017-Oct-15 12:58N 40°46' W 073°60'0 0.2
2017-Oct-15 12:27N 40°46' W 073°60'0 0.3
2017-Oct-15 12:00N 40°46' W 074°00'0 0.2
2017-Oct-15 11:29N 40°46' W 074°00'0 0.2
2017-Oct-15 10:57N 40°46' W 073°60'0 0.0
2017-Oct-15 10:30N 40°46' W 073°60'0 0.6
2017-Oct-15 10:00N 40°46' W 074°00'4 9.0
2017-Oct-15 09:31N 40°42' W 074°02'4 8.6
2017-Oct-15 09:00N 40°39' W 074°06'1 0.7
2017-Oct-15 07:45N 40°38' W 074°07'0 0.0
2017-Oct-15 05:21N 40°38' W 074°07'0 0.0
2017-Oct-15 04:21N 40°38' W 074°07'0 0.0
2017-Oct-15 03:57N 40°38' W 074°07'0 0.0
2017-Oct-15 02:15N 40°38' W 074°07'0 0.0
2017-Oct-14 20:37N 40°39' W 074°07'0 1.7
2017-Oct-14 20:20N 40°39' W 074°07'0 0.5
2017-Oct-14 19:58N 40°39' W 074°07'1 1.1
2017-Oct-14 19:30N 40°39' W 074°06'4 8.1
2017-Oct-14 19:00N 40°40' W 074°01'1 1.8
2017-Oct-14 18:28N 40°40' W 074°00'0 0.0
2017-Oct-14 17:58N 40°40' W 074°00'0 0.0
2017-Oct-14 17:28N 40°40' W 074°00'0 0.0
2017-Oct-14 16:55N 40°40' W 074°00'0 0.0
2017-Oct-14 16:28N 40°40' W 074°00'0 0.0
2017-Oct-14 15:49N 40°40' W 074°00'0 0.1
2017-Oct-14 15:30N 40°40' W 074°00'0 0.1
2017-Oct-14 14:58N 40°40' W 074°00'0 0.0
2017-Oct-14 14:20N 40°40' W 074°00'0 0.0
2017-Oct-14 13:58N 40°40' W 074°00'0 0.0
2017-Oct-14 13:28N 40°40' W 074°00'0 0.8
2017-Oct-14 13:00N 40°40' W 074°00'4 8.0
2017-Oct-14 12:30N 40°39' W 074°05'1 1.4
2017-Oct-14 11:31N 40°38' W 074°07'0 0.0
2017-Oct-14 11:19N 40°38' W 074°07'0 0.0
2017-Oct-14 10:13N 40°38' W 074°07'0 0.0
2017-Oct-14 08:31N 40°38' W 074°07'0 0.0
2017-Oct-14 06:19N 40°38' W 074°07'0 0.0
2017-Oct-14 05:49N 40°38' W 074°07'0 0.0
2017-Oct-14 05:25N 40°38' W 074°07'0 0.0
2017-Oct-14 04:43N 40°38' W 074°07'0 0.0
2017-Oct-14 03:07N 40°38' W 074°07'0 0.0
2017-Oct-14 02:49N 40°38' W 074°07'0 0.0
2017-Oct-14 02:25N 40°38' W 074°07'0 0.0
2017-Oct-14 01:55N 40°38' W 074°07'0 0.0
2017-Oct-14 00:01N 40°38' W 074°07'0 0.0
2017-Oct-13 23:55N 40°38' W 074°07'0 0.0
2017-Oct-13 23:13N 40°38' W 074°07'0 0.0
2017-Oct-13 22:57N 40°38' W 074°07'4 7.9
2017-Oct-13 22:30N 40°38' W 074°12'1 1.0
2017-Oct-13 21:59N 40°38' W 074°12'2 3.5
2017-Oct-13 21:30N 40°39' W 074°11'3 4.8
2017-Oct-13 20:58N 40°39' W 074°07'0 0.0
2017-Oct-13 20:28N 40°39' W 074°07'0 0.0
2017-Oct-13 17:10N 40°39' W 074°07'0 0.0
2017-Oct-13 16:52N 40°39' W 074°07'0 0.0
2017-Oct-13 15:58N 40°39' W 074°07'0 0.0
2017-Oct-13 15:28N 40°38' W 074°07'0 0.0
2017-Oct-13 14:46N 40°39' W 074°07'0 0.0
2017-Oct-13 14:28N 40°39' W 074°07'0 0.0
2017-Oct-13 13:58N 40°38' W 074°07'0 0.0
2017-Oct-13 13:16N 40°39' W 074°07'0 0.0
2017-Oct-13 12:58N 40°39' W 074°07'0 0.0
2017-Oct-13 12:28N 40°39' W 074°07'0 0.0
2017-Oct-13 11:55N 40°39' W 074°07'0 0.0
2017-Oct-13 11:28N 40°39' W 074°07'2 3.3
2017-Oct-13 11:00N 40°39' W 074°05'1 2.4
2017-Oct-13 10:28N 40°40' W 074°05'0 0.0
2017-Oct-13 09:58N 40°40' W 074°05'0 0.0
2017-Oct-13 09:28N 40°40' W 074°05'0 0.0
2017-Oct-13 08:58N 40°40' W 074°05'0 0.0
2017-Oct-13 08:10N 40°40' W 074°05'0 0.0
2017-Oct-13 07:55N 40°40' W 074°05'0 0.0
2017-Oct-13 07:28N 40°40' W 074°05'0 0.0
2017-Oct-13 06:58N 40°40' W 074°05'0 0.0
2017-Oct-13 06:25N 40°40' W 074°05'0 0.0
2017-Oct-13 05:58N 40°40' W 074°05'0 0.0
2017-Oct-13 05:25N 40°40' W 074°05'0 0.0
2017-Oct-13 04:55N 40°40' W 074°05'0 0.0
2017-Oct-13 04:28N 40°40' W 074°05'0 0.0
2017-Oct-13 03:55N 40°40' W 074°05'0 0.0
2017-Oct-13 03:28N 40°40' W 074°05'0 0.0
2017-Oct-13 02:58N 40°40' W 074°05'0 0.0
2017-Oct-13 02:28N 40°40' W 074°05'0 0.0
2017-Oct-13 01:58N 40°40' W 074°05'2 3.0
2017-Oct-13 01:25N 40°40' W 074°03'1 3.4
2017-Oct-13 01:00N 40°39' W 074°04'3 6.7
2017-Oct-13 00:30N 40°39' W 074°09'2 4.8
2017-Oct-13 00:00N 40°41' W 074°09'2 4.0
2017-Oct-12 23:30N 40°39' W 074°09'1 0.8
2017-Oct-12 21:53N 40°38' W 074°07'0 0.0
2017-Oct-12 21:25N 40°38' W 074°07'3 6.8
2017-Oct-12 21:00N 40°40' W 074°04'0 0.2
2017-Oct-12 20:30N 40°40' W 074°04'4 7.0
2017-Oct-12 19:59N 40°39' W 074°08'2 3.9
2017-Oct-12 19:26N 40°41' W 074°09'1 2.7
2017-Oct-12 19:00N 40°40' W 074°09'3 6.3
2017-Oct-12 18:30N 40°39' W 074°05'4 7.2
2017-Oct-12 18:00N 40°40' W 074°00'0 0.1
2017-Oct-12 17:30N 40°40' W 074°00'0 0.0
2017-Oct-12 16:57N 40°40' W 074°00'0 0.0
2017-Oct-12 16:30N 40°40' W 074°00'0 0.0
2017-Oct-12 15:54N 40°40' W 074°00'0 0.0
2017-Oct-12 15:30N 40°40' W 074°00'0 0.0
2017-Oct-12 14:54N 40°40' W 074°00'0 0.0
2017-Oct-12 14:30N 40°40' W 074°00'0 0.0
2017-Oct-12 13:54N 40°40' W 074°00'0 0.1
2017-Oct-12 13:31N 40°40' W 073°60'3 5.5
2017-Oct-12 13:00N 40°39' W 074°03'3 4.4
2017-Oct-12 12:20N 40°39' W 074°07'0 0.1
2017-Oct-12 11:54N 40°39' W 074°07'0 0.0
2017-Oct-12 11:30N 40°39' W 074°07'0 0.1
2017-Oct-12 10:50N 40°38' W 074°07'0 0.0
2017-Oct-12 10:02N 40°38' W 074°07'0 0.0
2017-Oct-12 09:44N 40°38' W 074°07'0 0.0
2017-Oct-12 09:26N 40°38' W 074°07'0 0.0
2017-Oct-12 05:35N 40°39' W 074°07'0 0.1
2017-Oct-12 05:28N 40°39' W 074°07'0 0.0
2017-Oct-12 04:58N 40°39' W 074°07'0 0.0
2017-Oct-12 01:39N 40°38' W 074°07'0 0.0
2017-Oct-12 01:03N 40°38' W 074°07'0 0.0
2017-Oct-12 00:57N 40°38' W 074°07'0 0.0
2017-Oct-12 00:30N 40°38' W 074°07'0 0.0
2017-Oct-12 00:00N 40°38' W 074°07'0 0.0
2017-Oct-11 23:30N 40°38' W 074°07'0 0.0
2017-Oct-11 23:00N 40°38' W 074°07'0 0.0
2017-Oct-11 22:30N 40°38' W 074°07'0 0.0
2017-Oct-11 19:54N 40°38' W 074°07'0 0.0
2017-Oct-11 17:00N 40°38' W 074°07'0 0.0
2017-Oct-11 00:00N 40°38' W 074°07'0 0.0
2017-Oct-10 23:24N 40°38' W 074°07'0 0.0
2017-Oct-10 23:00N 40°38' W 074°07'0 0.0
2017-Oct-10 22:21N 40°38' W 074°07'0 0.0
2017-Oct-10 21:54N 40°38' W 074°07'0 0.0
2017-Oct-10 21:30N 40°38' W 074°07'0 0.0
2017-Oct-10 16:33N 40°38' W 074°07'0 0.0
2017-Oct-10 16:09N 40°38' W 074°07'0 0.0
2017-Oct-10 14:00N 40°38' W 074°07'0 0.0
2017-Oct-10 13:27N 40°38' W 074°07'0 0.0
2017-Oct-10 11:30N 40°38' W 074°07'  

Dump ship's entire track history